sensor_id;sensor_type;location;lat;lon;timestamp;pressure;altitude;pressure_sealevel;temperature;humidity
11343;BME280;5726;42.160;24.746;2023-04-05T00:01:14;98884.31;;;7.85;100.00
11343;BME280;5726;42.160;24.746;2023-04-05T00:03:40;98878.31;;;7.74;100.00
11343;BME280;5726;42.160;24.746;2023-04-05T00:06:06;98882.66;;;7.89;100.00
11343;BME280;5726;42.160;24.746;2023-04-05T00:08:32;98885.31;;;7.89;100.00
11343;BME280;5726;42.160;24.746;2023-04-05T00:10:57;98886.72;;;8.05;100.00
11343;BME280;5726;42.160;24.746;2023-04-05T00:13:23;98884.81;;;7.87;100.00
11343;BME280;5726;42.160;24.746;2023-04-05T00:15:49;98874.03;;;7.73;100.00
11343;BME280;5726;42.160;24.746;2023-04-05T00:18:15;98883.28;;;7.81;100.00
11343;BME280;5726;42.160;24.746;2023-04-05T00:20:49;98886.19;;;7.61;100.00
11343;BME280;5726;42.160;24.746;2023-04-05T00:23:15;98888.31;;;7.64;100.00
11343;BME280;5726;42.160;24.746;2023-04-05T00:25:42;98893.00;;;7.72;100.00
11343;BME280;5726;42.160;24.746;2023-04-05T00:28:08;98889.84;;;7.70;100.00
11343;BME280;5726;42.160;24.746;2023-04-05T00:30:34;98890.53;;;7.75;100.00
11343;BME280;5726;42.160;24.746;2023-04-05T00:33:00;98885.56;;;7.69;100.00
11343;BME280;5726;42.160;24.746;2023-04-05T00:35:29;98896.03;;;7.65;100.00
11343;BME280;5726;42.160;24.746;2023-04-05T00:37:55;98891.75;;;7.64;100.00
11343;BME280;5726;42.160;24.746;2023-04-05T00:40:22;98893.50;;;7.74;100.00
11343;BME280;5726;42.160;24.746;2023-04-05T00:42:47;98896.44;;;7.72;100.00
11343;BME280;5726;42.160;24.746;2023-04-05T00:45:13;98885.00;;;7.72;100.00
11343;BME280;5726;42.160;24.746;2023-04-05T00:47:40;98889.44;;;7.58;100.00
11343;BME280;5726;42.160;24.746;2023-04-05T00:50:07;98893.09;;;7.62;100.00
11343;BME280;5726;42.160;24.746;2023-04-05T00:52:34;98892.03;;;7.63;100.00
11343;BME280;5726;42.160;24.746;2023-04-05T00:55:02;98894.09;;;7.48;100.00
11343;BME280;5726;42.160;24.746;2023-04-05T00:57:30;98897.16;;;7.60;100.00
11343;BME280;5726;42.160;24.746;2023-04-05T00:59:59;98895.91;;;7.52;100.00
11343;BME280;5726;42.160;24.746;2023-04-05T01:02:33;98902.22;;;7.61;100.00
11343;BME280;5726;42.160;24.746;2023-04-05T01:05:13;98898.00;;;7.55;100.00
11343;BME280;5726;42.160;24.746;2023-04-05T01:07:56;98900.50;;;7.70;100.00
11343;BME280;5726;42.160;24.746;2023-04-05T01:10:27;98902.94;;;7.66;100.00
11343;BME280;5726;42.160;24.746;2023-04-05T01:12:55;98904.63;;;7.58;100.00
11343;BME280;5726;42.160;24.746;2023-04-05T01:15:21;98899.63;;;7.51;100.00
11343;BME280;5726;42.160;24.746;2023-04-05T01:17:46;98907.31;;;7.81;100.00
11343;BME280;5726;42.160;24.746;2023-04-05T01:20:13;98907.81;;;7.83;100.00
11343;BME280;5726;42.160;24.746;2023-04-05T01:28:51;98904.97;;;7.51;100.00
11343;BME280;5726;42.160;24.746;2023-04-05T01:31:49;98910.47;;;7.36;100.00
11343;BME280;5726;42.160;24.746;2023-04-05T01:37:02;98915.16;;;7.21;100.00
11343;BME280;5726;42.160;24.746;2023-04-05T01:39:30;98901.00;;;7.20;100.00
11343;BME280;5726;42.160;24.746;2023-04-05T01:41:59;98908.44;;;7.28;100.00
11343;BME280;5726;42.160;24.746;2023-04-05T01:44:25;98914.25;;;7.30;100.00
11343;BME280;5726;42.160;24.746;2023-04-05T01:46:51;98911.03;;;7.33;100.00
11343;BME280;5726;42.160;24.746;2023-04-05T01:49:17;98910.31;;;7.51;100.00
11343;BME280;5726;42.160;24.746;2023-04-05T01:51:42;98923.16;;;7.49;100.00
11343;BME280;5726;42.160;24.746;2023-04-05T01:54:08;98925.28;;;7.47;100.00
11343;BME280;5726;42.160;24.746;2023-04-05T01:56:34;98922.75;;;7.32;100.00
11343;BME280;5726;42.160;24.746;2023-04-05T01:58:59;98909.28;;;7.47;100.00
11343;BME280;5726;42.160;24.746;2023-04-05T02:01:25;98915.75;;;7.41;100.00
11343;BME280;5726;42.160;24.746;2023-04-05T02:03:50;98923.97;;;7.68;100.00
11343;BME280;5726;42.160;24.746;2023-04-05T02:06:16;98920.91;;;7.33;100.00
11343;BME280;5726;42.160;24.746;2023-04-05T02:08:41;98933.41;;;7.32;100.00
11343;BME280;5726;42.160;24.746;2023-04-05T02:11:06;98919.66;;;7.25;100.00
11343;BME280;5726;42.160;24.746;2023-04-05T02:13:32;98922.47;;;7.34;100.00
11343;BME280;5726;42.160;24.746;2023-04-05T02:15:57;98923.19;;;7.16;100.00
11343;BME280;5726;42.160;24.746;2023-04-05T02:18:23;98927.38;;;7.22;100.00
11343;BME280;5726;42.160;24.746;2023-04-05T02:21:03;98926.66;;;7.16;100.00
11343;BME280;5726;42.160;24.746;2023-04-05T02:23:29;98933.13;;;7.11;100.00
11343;BME280;5726;42.160;24.746;2023-04-05T02:25:56;98936.56;;;7.11;100.00
11343;BME280;5726;42.160;24.746;2023-04-05T02:28:21;98943.72;;;7.15;100.00
11343;BME280;5726;42.160;24.746;2023-04-05T02:30:47;98949.13;;;7.06;100.00
11343;BME280;5726;42.160;24.746;2023-04-05T02:33:12;98944.34;;;7.03;100.00
11343;BME280;5726;42.160;24.746;2023-04-05T02:35:37;98945.72;;;7.00;100.00
11343;BME280;5726;42.160;24.746;2023-04-05T02:38:03;98945.16;;;7.03;100.00
11343;BME280;5726;42.160;24.746;2023-04-05T02:40:29;98939.34;;;6.96;100.00
11343;BME280;5726;42.160;24.746;2023-04-05T02:42:54;98943.91;;;6.96;100.00
11343;BME280;5726;42.160;24.746;2023-04-05T02:45:20;98943.25;;;7.09;100.00
11343;BME280;5726;42.160;24.746;2023-04-05T02:47:46;98953.91;;;7.09;100.00
11343;BME280;5726;42.160;24.746;2023-04-05T02:50:11;98955.28;;;7.06;100.00
11343;BME280;5726;42.160;24.746;2023-04-05T02:52:37;98958.22;;;7.05;100.00
11343;BME280;5726;42.160;24.746;2023-04-05T02:55:06;98956.00;;;7.12;100.00
11343;BME280;5726;42.160;24.746;2023-04-05T02:57:31;98955.72;;;7.18;100.00
11343;BME280;5726;42.160;24.746;2023-04-05T02:59:57;98948.66;;;6.99;100.00
11343;BME280;5726;42.160;24.746;2023-04-05T03:02:22;98954.22;;;7.02;100.00
11343;BME280;5726;42.160;24.746;2023-04-05T03:04:50;98959.56;;;7.02;100.00
11343;BME280;5726;42.160;24.746;2023-04-05T03:07:17;98961.81;;;7.18;100.00
11343;BME280;5726;42.160;24.746;2023-04-05T03:09:45;98961.88;;;7.13;100.00
11343;BME280;5726;42.160;24.746;2023-04-05T03:12:12;98965.09;;;7.11;100.00
11343;BME280;5726;42.160;24.746;2023-04-05T03:14:38;98972.19;;;7.20;100.00
11343;BME280;5726;42.160;24.746;2023-04-05T03:17:03;98968.19;;;6.89;100.00
11343;BME280;5726;42.160;24.746;2023-04-05T03:19:30;98977.97;;;6.99;100.00
11343;BME280;5726;42.160;24.746;2023-04-05T03:21:56;98970.81;;;6.94;100.00
11343;BME280;5726;42.160;24.746;2023-04-05T03:24:22;98982.38;;;6.80;100.00
11343;BME280;5726;42.160;24.746;2023-04-05T03:26:48;98977.03;;;6.80;100.00
11343;BME280;5726;42.160;24.746;2023-04-05T03:29:14;98973.66;;;7.03;100.00
11343;BME280;5726;42.160;24.746;2023-04-05T03:31:40;98976.06;;;7.04;100.00
11343;BME280;5726;42.160;24.746;2023-04-05T03:34:05;98976.66;;;6.96;100.00
11343;BME280;5726;42.160;24.746;2023-04-05T03:36:31;98974.97;;;6.72;100.00
11343;BME280;5726;42.160;24.746;2023-04-05T03:39:10;98979.31;;;6.96;100.00
11343;BME280;5726;42.160;24.746;2023-04-05T03:41:38;98973.16;;;7.01;100.00
11343;BME280;5726;42.160;24.746;2023-04-05T03:44:05;98976.66;;;6.96;100.00
11343;BME280;5726;42.160;24.746;2023-04-05T03:46:31;98974.03;;;6.91;100.00
11343;BME280;5726;42.160;24.746;2023-04-05T03:48:57;98982.31;;;6.90;100.00
11343;BME280;5726;42.160;24.746;2023-04-05T03:51:23;98982.97;;;6.67;100.00
11343;BME280;5726;42.160;24.746;2023-04-05T03:53:49;98977.56;;;6.82;100.00
11343;BME280;5726;42.160;24.746;2023-04-05T03:56:15;98979.94;;;6.83;100.00
11343;BME280;5726;42.160;24.746;2023-04-05T03:58:41;98979.25;;;6.68;100.00
11343;BME280;5726;42.160;24.746;2023-04-05T04:01:06;98989.84;;;6.78;100.00
11343;BME280;5726;42.160;24.746;2023-04-05T04:03:32;98986.38;;;6.82;100.00
11343;BME280;5726;42.160;24.746;2023-04-05T04:05:57;98993.09;;;6.70;100.00
11343;BME280;5726;42.160;24.746;2023-04-05T04:08:23;98993.25;;;6.88;100.00
11343;BME280;5726;42.160;24.746;2023-04-05T04:10:49;99009.22;;;6.88;100.00
11343;BME280;5726;42.160;24.746;2023-04-05T04:13:14;99011.06;;;6.93;100.00
11343;BME280;5726;42.160;24.746;2023-04-05T04:15:40;99003.72;;;6.75;100.00
11343;BME280;5726;42.160;24.746;2023-04-05T04:18:06;99001.41;;;7.02;100.00
11343;BME280;5726;42.160;24.746;2023-04-05T04:20:31;99007.13;;;6.85;100.00
11343;BME280;5726;42.160;24.746;2023-04-05T04:22:57;99022.56;;;6.83;100.00
11343;BME280;5726;42.160;24.746;2023-04-05T04:25:23;99018.00;;;6.89;100.00
11343;BME280;5726;42.160;24.746;2023-04-05T04:27:51;99023.91;;;6.86;100.00
11343;BME280;5726;42.160;24.746;2023-04-05T04:30:17;99024.69;;;6.86;100.00
11343;BME280;5726;42.160;24.746;2023-04-05T04:32:42;99027.56;;;6.95;100.00
11343;BME280;5726;42.160;24.746;2023-04-05T04:35:24;99023.84;;;6.91;100.00
11343;BME280;5726;42.160;24.746;2023-04-05T04:37:58;99026.25;;;6.92;100.00
11343;BME280;5726;42.160;24.746;2023-04-05T04:40:38;99019.06;;;6.88;100.00
11343;BME280;5726;42.160;24.746;2023-04-05T04:43:08;99028.34;;;7.00;100.00
11343;BME280;5726;42.160;24.746;2023-04-05T04:45:36;99024.72;;;7.19;100.00
11343;BME280;5726;42.160;24.746;2023-04-05T04:48:03;99037.97;;;7.29;100.00
11343;BME280;5726;42.160;24.746;2023-04-05T04:50:30;99041.34;;;7.40;100.00
11343;BME280;5726;42.160;24.746;2023-04-05T04:53:00;99045.91;;;7.39;100.00
11343;BME280;5726;42.160;24.746;2023-04-05T04:55:29;99046.19;;;7.66;100.00
11343;BME280;5726;42.160;24.746;2023-04-05T04:57:55;99048.63;;;7.62;100.00
11343;BME280;5726;42.160;24.746;2023-04-05T05:00:23;99039.50;;;7.68;100.00
11343;BME280;5726;42.160;24.746;2023-04-05T05:02:50;99045.00;;;7.82;100.00
11343;BME280;5726;42.160;24.746;2023-04-05T05:05:17;99054.75;;;7.91;100.00
11343;BME280;5726;42.160;24.746;2023-04-05T05:07:42;99054.66;;;8.29;100.00
11343;BME280;5726;42.160;24.746;2023-04-05T05:10:09;99057.28;;;8.53;100.00
11343;BME280;5726;42.160;24.746;2023-04-05T05:12:36;99049.91;;;8.21;100.00
11343;BME280;5726;42.160;24.746;2023-04-05T05:15:02;99052.44;;;8.13;100.00
11343;BME280;5726;42.160;24.746;2023-04-05T05:17:28;99055.97;;;7.75;100.00
11343;BME280;5726;42.160;24.746;2023-04-05T05:19:54;99057.47;;;7.58;100.00
11343;BME280;5726;42.160;24.746;2023-04-05T05:22:19;99068.66;;;7.60;100.00
11343;BME280;5726;42.160;24.746;2023-04-05T05:24:45;99059.38;;;7.53;100.00
11343;BME280;5726;42.160;24.746;2023-04-05T05:27:11;99056.44;;;7.54;100.00
11343;BME280;5726;42.160;24.746;2023-04-05T05:29:36;99067.84;;;7.31;100.00
11343;BME280;5726;42.160;24.746;2023-04-05T05:32:03;99061.59;;;7.08;100.00
11343;BME280;5726;42.160;24.746;2023-04-05T05:34:28;99069.22;;;7.24;100.00
11343;BME280;5726;42.160;24.746;2023-04-05T05:36:54;99066.44;;;7.39;100.00
11343;BME280;5726;42.160;24.746;2023-04-05T05:39:20;99068.69;;;7.22;100.00
11343;BME280;5726;42.160;24.746;2023-04-05T05:41:46;99070.28;;;7.56;100.00
11343;BME280;5726;42.160;24.746;2023-04-05T05:44:12;99062.69;;;7.73;100.00
11343;BME280;5726;42.160;24.746;2023-04-05T05:46:39;99066.63;;;7.47;100.00
11343;BME280;5726;42.160;24.746;2023-04-05T05:49:05;99067.78;;;7.36;100.00
11343;BME280;5726;42.160;24.746;2023-04-05T05:51:31;99068.44;;;7.57;100.00
11343;BME280;5726;42.160;24.746;2023-04-05T05:54:00;99075.69;;;7.79;100.00
11343;BME280;5726;42.160;24.746;2023-04-05T05:56:25;99062.28;;;8.12;100.00
11343;BME280;5726;42.160;24.746;2023-04-05T05:58:51;99069.44;;;7.89;100.00
11343;BME280;5726;42.160;24.746;2023-04-05T06:01:17;99075.97;;;7.78;100.00
11343;BME280;5726;42.160;24.746;2023-04-05T06:03:42;99063.94;;;7.80;100.00
11343;BME280;5726;42.160;24.746;2023-04-05T06:06:07;99060.66;;;7.60;100.00
11343;BME280;5726;42.160;24.746;2023-04-05T06:08:35;99072.78;;;7.43;100.00
11343;BME280;5726;42.160;24.746;2023-04-05T06:11:01;99076.28;;;7.38;100.00
11343;BME280;5726;42.160;24.746;2023-04-05T06:13:29;99071.41;;;7.50;100.00
11343;BME280;5726;42.160;24.746;2023-04-05T06:15:54;99078.19;;;7.38;100.00
11343;BME280;5726;42.160;24.746;2023-04-05T06:18:19;99072.22;;;7.46;100.00
11343;BME280;5726;42.160;24.746;2023-04-05T06:20:45;99074.94;;;7.74;100.00
11343;BME280;5726;42.160;24.746;2023-04-05T06:23:11;99076.31;;;7.71;100.00
11343;BME280;5726;42.160;24.746;2023-04-05T06:25:36;99076.31;;;7.71;100.00
11343;BME280;5726;42.160;24.746;2023-04-05T06:28:03;99075.06;;;7.59;100.00
11343;BME280;5726;42.160;24.746;2023-04-05T06:30:29;99082.59;;;7.52;100.00
11343;BME280;5726;42.160;24.746;2023-04-05T06:32:54;99086.72;;;7.68;100.00
11343;BME280;5726;42.160;24.746;2023-04-05T06:35:23;99087.06;;;7.90;100.00
11343;BME280;5726;42.160;24.746;2023-04-05T06:37:49;99078.16;;;7.99;100.00
11343;BME280;5726;42.160;24.746;2023-04-05T06:40:15;99088.81;;;8.32;100.00
11343;BME280;5726;42.160;24.746;2023-04-05T06:42:41;99095.84;;;8.23;100.00
11343;BME280;5726;42.160;24.746;2023-04-05T06:45:07;99091.91;;;8.16;100.00
11343;BME280;5726;42.160;24.746;2023-04-05T06:47:37;99093.50;;;8.17;100.00
11343;BME280;5726;42.160;24.746;2023-04-05T06:50:03;99095.69;;;8.10;100.00
11343;BME280;5726;42.160;24.746;2023-04-05T06:52:29;99101.34;;;8.04;100.00
11343;BME280;5726;42.160;24.746;2023-04-05T06:54:55;99107.72;;;8.07;100.00
11343;BME280;5726;42.160;24.746;2023-04-05T06:57:21;99096.91;;;8.22;100.00
11343;BME280;5726;42.160;24.746;2023-04-05T06:59:46;99111.88;;;8.23;100.00
11343;BME280;5726;42.160;24.746;2023-04-05T07:02:12;99120.28;;;8.07;100.00
11343;BME280;5726;42.160;24.746;2023-04-05T07:04:38;99124.69;;;8.21;100.00
11343;BME280;5726;42.160;24.746;2023-04-05T07:07:04;99118.47;;;8.31;100.00
11343;BME280;5726;42.160;24.746;2023-04-05T07:09:34;99129.59;;;8.38;100.00
11343;BME280;5726;42.160;24.746;2023-04-05T07:12:01;99133.09;;;8.33;100.00
11343;BME280;5726;42.160;24.746;2023-04-05T07:14:31;99130.41;;;8.38;100.00
11343;BME280;5726;42.160;24.746;2023-04-05T07:16:57;99140.69;;;8.21;100.00
11343;BME280;5726;42.160;24.746;2023-04-05T07:19:23;99141.88;;;8.39;100.00
11343;BME280;5726;42.160;24.746;2023-04-05T07:21:48;99142.78;;;8.53;100.00
11343;BME280;5726;42.160;24.746;2023-04-05T07:24:14;99140.28;;;8.61;100.00
11343;BME280;5726;42.160;24.746;2023-04-05T07:26:40;99148.69;;;8.50;100.00
11343;BME280;5726;42.160;24.746;2023-04-05T07:29:06;99131.44;;;8.84;100.00
11343;BME280;5726;42.160;24.746;2023-04-05T07:31:33;99141.53;;;8.92;100.00
11343;BME280;5726;42.160;24.746;2023-04-05T07:33:59;99146.81;;;8.73;100.00
11343;BME280;5726;42.160;24.746;2023-04-05T07:36:25;99141.16;;;8.80;100.00
11343;BME280;5726;42.160;24.746;2023-04-05T07:38:52;99138.81;;;8.50;100.00
11343;BME280;5726;42.160;24.746;2023-04-05T07:41:18;99156.31;;;8.61;100.00
11343;BME280;5726;42.160;24.746;2023-04-05T07:43:45;99149.16;;;8.57;100.00
11343;BME280;5726;42.160;24.746;2023-04-05T07:46:10;99147.91;;;8.49;100.00
11343;BME280;5726;42.160;24.746;2023-04-05T07:48:36;99158.22;;;8.60;100.00
11343;BME280;5726;42.160;24.746;2023-04-05T07:51:05;99160.53;;;8.67;100.00
11343;BME280;5726;42.160;24.746;2023-04-05T07:53:32;99162.16;;;8.63;100.00
11343;BME280;5726;42.160;24.746;2023-04-05T07:55:57;99155.00;;;8.82;100.00
11343;BME280;5726;42.160;24.746;2023-04-05T07:58:24;99154.06;;;8.73;100.00
11343;BME280;5726;42.160;24.746;2023-04-05T08:00:49;99161.59;;;8.89;100.00
11343;BME280;5726;42.160;24.746;2023-04-05T08:03:17;99169.06;;;8.92;100.00
11343;BME280;5726;42.160;24.746;2023-04-05T08:05:43;99170.78;;;9.02;100.00
11343;BME280;5726;42.160;24.746;2023-04-05T08:08:08;99165.97;;;9.04;100.00
11343;BME280;5726;42.160;24.746;2023-04-05T08:10:38;99152.94;;;8.97;100.00
11343;BME280;5726;42.160;24.746;2023-04-05T08:13:04;99173.25;;;8.75;100.00
11343;BME280;5726;42.160;24.746;2023-04-05T08:15:32;99180.78;;;8.73;100.00
11343;BME280;5726;42.160;24.746;2023-04-05T08:17:57;99166.22;;;8.84;78.47
11343;BME280;5726;42.160;24.746;2023-04-05T08:20:23;99177.06;;;9.15;78.72
11343;BME280;5726;42.160;24.746;2023-04-05T08:22:48;99179.47;;;9.35;79.58
11343;BME280;5726;42.160;24.746;2023-04-05T08:25:13;99169.63;;;9.49;77.76
11343;BME280;5726;42.160;24.746;2023-04-05T08:27:39;99176.13;;;9.43;77.83
11343;BME280;5726;42.160;24.746;2023-04-05T08:30:06;99175.28;;;9.66;78.64
11343;BME280;5726;42.160;24.746;2023-04-05T08:32:33;99177.59;;;9.54;77.35
11343;BME280;5726;42.160;24.746;2023-04-05T08:34:58;99191.47;;;9.56;76.99
11343;BME280;5726;42.160;24.746;2023-04-05T08:37:23;99187.19;;;9.55;77.92
11343;BME280;5726;42.160;24.746;2023-04-05T08:39:49;99184.59;;;9.68;77.01
11343;BME280;5726;42.160;24.746;2023-04-05T08:42:17;99195.78;;;9.89;75.73
11343;BME280;5726;42.160;24.746;2023-04-05T08:44:50;99189.50;;;9.80;75.89
11343;BME280;5726;42.160;24.746;2023-04-05T08:47:18;99196.69;;;9.66;76.62
11343;BME280;5726;42.160;24.746;2023-04-05T08:49:44;99195.75;;;9.57;75.72
11343;BME280;5726;42.160;24.746;2023-04-05T08:52:09;99201.50;;;9.64;76.79
11343;BME280;5726;42.160;24.746;2023-04-05T08:54:35;99190.41;;;9.57;77.83
11343;BME280;5726;42.160;24.746;2023-04-05T08:57:02;99195.31;;;9.50;77.68
11343;BME280;5726;42.160;24.746;2023-04-05T08:59:31;99193.91;;;9.34;78.72
11343;BME280;5726;42.160;24.746;2023-04-05T09:01:59;99197.56;;;9.61;77.88
11343;BME280;5726;42.160;24.746;2023-04-05T09:04:28;99196.75;;;9.43;78.32
11343;BME280;5726;42.160;24.746;2023-04-05T09:06:57;99203.19;;;9.60;78.42
11343;BME280;5726;42.160;24.746;2023-04-05T09:09:23;99196.31;;;9.72;78.00
11343;BME280;5726;42.160;24.746;2023-04-05T09:11:49;99206.28;;;9.67;76.52
11343;BME280;5726;42.160;24.746;2023-04-05T09:14:16;99209.41;;;9.74;76.56
11343;BME280;5726;42.160;24.746;2023-04-05T09:16:42;99213.25;;;9.68;77.80
11343;BME280;5726;42.160;24.746;2023-04-05T09:19:08;99204.50;;;9.81;77.41
11343;BME280;5726;42.160;24.746;2023-04-05T09:24:42;99210.50;;;9.91;76.88
11343;BME280;5726;42.160;24.746;2023-04-05T09:27:27;99212.09;;;9.55;77.45
11343;BME280;5726;42.160;24.746;2023-04-05T09:29:53;99212.78;;;9.61;77.34
11343;BME280;5726;42.160;24.746;2023-04-05T09:32:18;99215.19;;;9.44;78.29
11343;BME280;5726;42.160;24.746;2023-04-05T09:34:45;99219.25;;;9.60;78.08
11343;BME280;5726;42.160;24.746;2023-04-05T09:37:19;99212.66;;;9.71;79.23
11343;BME280;5726;42.160;24.746;2023-04-05T09:39:48;99213.53;;;9.85;78.05
11343;BME280;5726;42.160;24.746;2023-04-05T09:42:16;99215.50;;;9.98;76.84
11343;BME280;5726;42.160;24.746;2023-04-05T09:44:56;99216.56;;;9.78;76.55
11343;BME280;5726;42.160;24.746;2023-04-05T09:47:28;99224.59;;;9.78;76.50
11343;BME280;5726;42.160;24.746;2023-04-05T09:50:03;99217.84;;;9.62;78.09
11343;BME280;5726;42.160;24.746;2023-04-05T09:52:31;99211.94;;;9.65;77.77
11343;BME280;5726;42.160;24.746;2023-04-05T09:55:01;99210.19;;;9.56;76.49
11343;BME280;5726;42.160;24.746;2023-04-05T09:57:27;99226.19;;;9.61;77.63
11343;BME280;5726;42.160;24.746;2023-04-05T09:59:57;99216.13;;;9.71;76.33
11343;BME280;5726;42.160;24.746;2023-04-05T10:02:22;99222.72;;;9.79;75.76
11343;BME280;5726;42.160;24.746;2023-04-05T10:04:48;99214.47;;;9.75;75.69
11343;BME280;5726;42.160;24.746;2023-04-05T10:07:16;99222.22;;;9.77;74.12
11343;BME280;5726;42.160;24.746;2023-04-05T10:09:45;99214.25;;;9.72;74.26
11343;BME280;5726;42.160;24.746;2023-04-05T10:12:24;99217.94;;;9.76;75.24
11343;BME280;5726;42.160;24.746;2023-04-05T10:14:54;99221.84;;;9.65;75.83
11343;BME280;5726;42.160;24.746;2023-04-05T10:17:23;99220.75;;;9.48;76.95
11343;BME280;5726;42.160;24.746;2023-04-05T10:27:46;99219.03;;;9.56;76.29
11343;BME280;5726;42.160;24.746;2023-04-05T10:30:14;99225.56;;;9.69;76.26
11343;BME280;5726;42.160;24.746;2023-04-05T10:35:33;99219.34;;;9.73;75.93
11343;BME280;5726;42.160;24.746;2023-04-05T10:38:16;99227.50;;;9.45;75.43
11343;BME280;5726;42.160;24.746;2023-04-05T10:40:46;99227.13;;;9.52;76.39
11343;BME280;5726;42.160;24.746;2023-04-05T10:43:15;99226.66;;;9.45;77.10
11343;BME280;5726;42.160;24.746;2023-04-05T10:45:44;99223.13;;;9.49;76.44
11343;BME280;5726;42.160;24.746;2023-04-05T10:48:23;99231.69;;;9.51;77.27
11343;BME280;5726;42.160;24.746;2023-04-05T10:50:52;99224.38;;;9.56;76.76
11343;BME280;5726;42.160;24.746;2023-04-05T10:53:19;99234.75;;;9.63;75.94
11343;BME280;5726;42.160;24.746;2023-04-05T10:55:45;99228.34;;;9.59;76.02
11343;BME280;5726;42.160;24.746;2023-04-05T10:58:12;99232.69;;;9.55;77.52
11343;BME280;5726;42.160;24.746;2023-04-05T11:00:39;99235.22;;;9.65;76.74
11343;BME280;5726;42.160;24.746;2023-04-05T11:03:05;99227.00;;;9.80;77.85
11343;BME280;5726;42.160;24.746;2023-04-05T11:05:33;99237.38;;;10.04;76.88
11343;BME280;5726;42.160;24.746;2023-04-05T11:08:04;99239.66;;;10.11;75.86
11343;BME280;5726;42.160;24.746;2023-04-05T11:10:31;99238.28;;;9.95;75.47
11343;BME280;5726;42.160;24.746;2023-04-05T11:18:20;99233.84;;;10.22;76.07
11343;BME280;5726;42.160;24.746;2023-04-05T11:20:51;99242.19;;;10.02;76.28
11343;BME280;5726;42.160;24.746;2023-04-05T11:23:22;99229.78;;;10.25;74.99
11343;BME280;5726;42.160;24.746;2023-04-05T11:25:56;99236.50;;;10.22;74.29
11343;BME280;5726;42.160;24.746;2023-04-05T11:28:35;99237.06;;;10.38;77.08
11343;BME280;5726;42.160;24.746;2023-04-05T11:31:14;99239.91;;;10.59;73.67
11343;BME280;5726;42.160;24.746;2023-04-05T11:36:11;99239.13;;;9.91;75.05
11343;BME280;5726;42.160;24.746;2023-04-05T11:38:37;99226.56;;;10.09;76.10
11343;BME280;5726;42.160;24.746;2023-04-05T11:41:13;99237.84;;;9.88;75.88
11343;BME280;5726;42.160;24.746;2023-04-05T11:43:42;99242.75;;;9.81;76.21
11343;BME280;5726;42.160;24.746;2023-04-05T11:46:08;99247.09;;;9.77;75.68
11343;BME280;5726;42.160;24.746;2023-04-05T11:48:33;99239.50;;;9.66;75.52
11343;BME280;5726;42.160;24.746;2023-04-05T11:51:06;99238.50;;;9.62;76.54
11343;BME280;5726;42.160;24.746;2023-04-05T11:53:32;99246.56;;;9.99;75.63
11343;BME280;5726;42.160;24.746;2023-04-05T11:56:05;99240.63;;;10.02;74.77
11343;BME280;5726;42.160;24.746;2023-04-05T11:58:31;99240.81;;;9.87;75.51
11343;BME280;5726;42.160;24.746;2023-04-05T12:01:01;99237.13;;;9.83;76.32
11343;BME280;5726;42.160;24.746;2023-04-05T12:03:28;99239.72;;;9.88;76.36
11343;BME280;5726;42.160;24.746;2023-04-05T12:05:55;99247.16;;;9.91;75.09
11343;BME280;5726;42.160;24.746;2023-04-05T12:08:22;99245.53;;;9.95;74.76
11343;BME280;5726;42.160;24.746;2023-04-05T12:10:58;99242.69;;;9.68;74.67
11343;BME280;5726;42.160;24.746;2023-04-05T12:13:32;99233.28;;;9.89;73.76
11343;BME280;5726;42.160;24.746;2023-04-05T12:16:02;99235.88;;;9.75;75.09
11343;BME280;5726;42.160;24.746;2023-04-05T12:18:33;99231.28;;;9.81;75.96
11343;BME280;5726;42.160;24.746;2023-04-05T12:21:04;99237.03;;;9.88;76.79
11343;BME280;5726;42.160;24.746;2023-04-05T12:23:30;99238.44;;;10.03;75.61
11343;BME280;5726;42.160;24.746;2023-04-05T12:25:56;99237.22;;;9.96;74.71
11343;BME280;5726;42.160;24.746;2023-04-05T12:28:22;99234.44;;;9.83;76.07
11343;BME280;5726;42.160;24.746;2023-04-05T12:30:56;99238.63;;;9.89;75.64
11343;BME280;5726;42.160;24.746;2023-04-05T12:33:29;99243.22;;;9.88;75.90
11343;BME280;5726;42.160;24.746;2023-04-05T12:35:57;99238.63;;;9.89;75.94
11343;BME280;5726;42.160;24.746;2023-04-05T12:38:26;99228.09;;;9.97;75.98
11343;BME280;5726;42.160;24.746;2023-04-05T12:40:52;99233.59;;;9.69;77.71
11343;BME280;5726;42.160;24.746;2023-04-05T12:43:19;99228.34;;;9.59;78.58
11343;BME280;5726;42.160;24.746;2023-04-05T12:45:45;99227.66;;;9.72;77.92
11343;BME280;5726;42.160;24.746;2023-04-05T12:48:19;99234.75;;;9.63;78.68
11343;BME280;5726;42.160;24.746;2023-04-05T12:50:47;99242.31;;;9.38;78.38
11343;BME280;5726;42.160;24.746;2023-04-05T12:55:52;99242.09;;;9.52;79.21
11343;BME280;5726;42.160;24.746;2023-04-05T12:58:19;99229.09;;;9.64;78.51
11343;BME280;5726;42.160;24.746;2023-04-05T13:00:45;99231.78;;;9.64;77.07
11343;BME280;5726;42.160;24.746;2023-04-05T13:03:19;99237.91;;;9.83;76.59
11343;BME280;5726;42.160;24.746;2023-04-05T13:05:46;99239.63;;;9.74;76.59
11343;BME280;5726;42.160;24.746;2023-04-05T13:08:12;99243.13;;;9.75;75.83
11343;BME280;5726;42.160;24.746;2023-04-05T13:10:38;99237.03;;;9.51;78.18
11343;BME280;5726;42.160;24.746;2023-04-05T13:13:03;99242.50;;;9.41;80.29
11343;BME280;5726;42.160;24.746;2023-04-05T13:15:29;99242.88;;;9.35;81.58
11343;BME280;5726;42.160;24.746;2023-04-05T13:17:54;99245.13;;;9.46;83.39
11343;BME280;5726;42.160;24.746;2023-04-05T13:20:20;99240.53;;;9.28;83.78
11343;BME280;5726;42.160;24.746;2023-04-05T13:22:46;99250.25;;;9.19;83.11
11343;BME280;5726;42.160;24.746;2023-04-05T13:25:12;99240.22;;;9.53;82.65
11343;BME280;5726;42.160;24.746;2023-04-05T13:27:38;99247.22;;;9.49;81.06
11343;BME280;5726;42.160;24.746;2023-04-05T13:30:04;99241.66;;;9.64;80.76
11343;BME280;5726;42.160;24.746;2023-04-05T13:32:30;99242.97;;;9.66;81.40
11343;BME280;5726;42.160;24.746;2023-04-05T13:34:55;99243.06;;;9.80;79.02
11343;BME280;5726;42.160;24.746;2023-04-05T13:37:20;99238.84;;;9.74;79.97
11343;BME280;5726;42.160;24.746;2023-04-05T13:39:46;99237.91;;;9.83;79.31